Time;durP1;ratioP1;P1;durP2;ratioP2;P2;SDS_P1;SDS_P2;PMS_P1;PMS_P2;Temp;Humidity;BMP_temperature;BMP_pressure;BME280_temperature;BME280_humidity;BME280_pressure;Samples;Min_cycle;Max_cycle;Signal;HPM_P1;HPM_P2
2021/08/19 00:01:00;;;;;;;14.53;8.30;;;;;;;21.16;85.28;100289.99;1636429;85;21058;-61
2021/08/19 00:03:27;;;;;;;14.10;8.00;;;;;;;21.14;85.34;100291.99;1644051;85;22099;-61
2021/08/19 00:05:54;;;;;;;15.78;7.97;;;;;;;21.13;85.39;100294.35;1676217;83;21116;-62
2021/08/19 00:11:06;;;;;;;18.48;8.75;;;;;;;21.12;85.59;100301.28;1690556;84;21064;-60
2021/08/19 00:13:35;;;;;;;16.10;8.50;;;;;;;21.09;85.65;100292.87;1688650;83;21507;-60
2021/08/19 00:16:02;;;;;;;14.10;8.98;;;;;;;21.03;85.81;100286.59;1688954;84;21108;-60
2021/08/19 00:18:31;;;;;;;16.45;8.48;;;;;;;20.99;85.87;100290.59;1686448;84;21071;-60
2021/08/19 00:20:59;;;;;;;13.85;8.55;;;;;;;20.95;86.05;100298.67;1671721;83;21067;-60
2021/08/19 00:23:28;;;;;;;17.42;8.48;;;;;;;20.93;86.12;100306.11;1690509;83;21024;-60
2021/08/19 00:25:56;;;;;;;15.53;8.98;;;;;;;20.88;86.27;100319.61;1618120;87;21113;-60
2021/08/19 00:28:24;;;;;;;13.62;8.88;;;;;;;20.84;86.47;100325.47;1596974;86;21134;-60
2021/08/19 00:30:52;;;;;;;11.15;8.33;;;;;;;20.81;86.56;100322.50;1678470;83;21155;-59
2021/08/19 00:33:19;;;;;;;16.57;9.60;;;;;;;20.74;86.69;100317.19;1685093;84;21131;-60
2021/08/19 00:35:48;;;;;;;13.53;8.73;;;;;;;20.69;86.81;100324.89;1677867;83;21064;-60
2021/08/19 00:38:15;;;;;;;14.95;9.10;;;;;;;20.64;86.98;100316.22;1650795;85;21082;-60
2021/08/19 00:40:42;;;;;;;14.28;8.75;;;;;;;20.59;87.27;100336.55;1654951;85;20978;-60
2021/08/19 00:43:09;;;;;;;12.68;8.83;;;;;;;20.54;87.25;100326.55;1635319;85;21187;-59
2021/08/19 00:45:38;;;;;;;12.50;8.38;;;;;;;20.53;87.33;100335.70;1639963;86;21051;-60
2021/08/19 00:48:07;;;;;;;12.73;8.43;;;;;;;20.50;87.43;100348.70;1628709;87;21029;-59
2021/08/19 00:50:36;;;;;;;16.12;8.40;;;;;;;20.46;87.37;100357.65;1656957;85;21631;-59
2021/08/19 00:53:04;;;;;;;14.13;8.08;;;;;;;20.43;87.31;100355.16;1651130;85;21163;-59
2021/08/19 00:55:31;;;;;;;13.78;7.83;;;;;;;20.40;87.29;100360.38;1663368;83;21167;-59
2021/08/19 00:58:02;;;;;;;15.23;8.73;;;;;;;20.35;87.27;100353.57;1688951;82;21019;-60
2021/08/19 01:00:30;;;;;;;13.08;7.95;;;;;;;20.30;87.44;100352.11;1692341;84;21042;-60
2021/08/19 01:02:58;;;;;;;11.65;7.87;;;;;;;20.28;87.62;100352.73;1656765;85;21048;-61
2021/08/19 01:05:30;;;;;;;14.00;8.20;;;;;;;20.25;87.74;100349.38;1656143;85;21551;-59
2021/08/19 01:07:59;;;;;;;12.37;7.87;;;;;;;20.23;87.86;100343.20;1605955;87;21144;-58
2021/08/19 01:10:29;;;;;;;12.47;8.45;;;;;;;20.18;88.11;100351.74;1611672;86;21590;-59
2021/08/19 01:12:56;;;;;;;16.05;8.73;;;;;;;20.16;88.38;100341.48;1608060;87;21207;-60
2021/08/19 01:15:25;;;;;;;14.07;9.10;;;;;;;20.12;88.60;100338.17;1607379;87;21842;-59
2021/08/19 01:17:55;;;;;;;11.22;8.13;;;;;;;20.11;88.90;100343.72;1663044;85;21996;-59
2021/08/19 01:20:29;;;;;;;14.65;8.10;;;;;;;20.10;89.21;100339.27;1696340;83;21046;-59
2021/08/19 01:22:57;;;;;;;11.18;8.70;;;;;;;20.09;89.56;100341.63;1693028;83;21035;-59
2021/08/19 01:25:24;;;;;;;14.43;8.75;;;;;;;20.07;89.76;100347.69;1688839;83;21817;-58
2021/08/19 01:27:54;;;;;;;13.18;8.78;;;;;;;20.06;90.38;100350.04;1665869;83;21103;-59
2021/08/19 01:30:21;;;;;;;12.68;8.55;;;;;;;19.97;90.97;100363.38;1657174;83;22001;-59
2021/08/19 01:32:48;;;;;;;13.32;9.35;;;;;;;19.92;91.55;100338.42;1677449;83;21128;-58
2021/08/19 01:35:25;;;;;;;13.55;9.28;;;;;;;19.89;91.81;100346.80;1672056;84;21040;-59
2021/08/19 01:37:52;;;;;;;12.70;8.73;;;;;;;19.88;92.14;100338.27;1658062;84;21094;-59
2021/08/19 01:40:21;;;;;;;15.45;8.85;;;;;;;19.86;92.43;100345.18;1691166;83;21147;-60
2021/08/19 01:42:49;;;;;;;14.23;8.70;;;;;;;19.85;92.62;100345.32;1691125;84;21107;-59
2021/08/19 01:45:18;;;;;;;15.30;10.00;;;;;;;19.85;92.86;100353.48;1690178;84;21585;-61
2021/08/19 01:47:47;;;;;;;12.43;9.38;;;;;;;19.85;92.86;100345.32;1688620;84;21059;-59
2021/08/19 01:50:15;;;;;;;14.95;9.73;;;;;;;19.85;92.96;100339.88;1686229;83;21070;-59
2021/08/19 01:52:44;;;;;;;15.13;9.70;;;;;;;19.86;92.98;100338.89;1683648;83;21123;-59
2021/08/19 01:55:13;;;;;;;15.32;9.95;;;;;;;19.84;93.21;100349.88;1657503;85;21140;-59
2021/08/19 01:57:40;;;;;;;15.32;9.68;;;;;;;19.84;93.23;100398.84;1604808;86;21093;-59
2021/08/19 02:00:09;;;;;;;11.35;8.65;;;;;;;19.83;93.24;100351.38;1656192;85;21120;-60
2021/08/19 02:02:40;;;;;;;14.47;8.98;;;;;;;19.82;93.27;100356.45;1661991;85;21076;-59
2021/08/19 02:05:10;;;;;;;14.65;9.18;;;;;;;19.80;93.30;100347.05;1654998;85;21072;-58
2021/08/19 02:07:39;;;;;;;17.12;10.13;;;;;;;19.77;93.26;100340.49;1607092;87;21096;-58
2021/08/19 02:10:09;;;;;;;14.38;8.95;;;;;;;19.75;93.50;100343.33;1624896;87;21093;-59
2021/08/19 02:12:36;;;;;;;17.52;9.40;;;;;;;19.78;93.54;100340.86;1622816;87;21134;-59
2021/08/19 02:15:05;;;;;;;15.83;9.30;;;;;;;19.81;93.32;100357.44;1651865;86;21112;-59
2021/08/19 02:17:33;;;;;;;15.18;9.15;;;;;;;19.82;93.09;100360.53;1624550;87;21112;-60
2021/08/19 02:20:00;;;;;;;14.05;8.90;;;;;;;19.82;92.93;100359.17;1642449;86;21147;-60
2021/08/19 02:22:28;;;;;;;14.85;8.65;;;;;;;19.82;92.70;100372.77;1640154;86;21517;-60
2021/08/19 02:24:57;;;;;;;11.25;8.30;;;;;;;19.83;92.49;100371.27;1642524;86;21104;-60
2021/08/19 02:27:23;;;;;;;13.43;8.60;;;;;;;19.82;92.12;100367.34;1637627;85;21089;-60
2021/08/19 02:29:52;;;;;;;11.85;7.90;;;;;;;19.82;92.01;100381.78;1622503;86;21007;-60
2021/08/19 02:32:19;;;;;;;10.88;8.30;;;;;;;19.80;92.07;100381.55;1629817;86;21135;-60
2021/08/19 02:34:46;;;;;;;11.15;8.05;;;;;;;19.78;91.89;100391.18;1689621;83;21602;-61
2021/08/19 02:37:14;;;;;;;14.78;8.05;;;;;;;19.80;92.09;100399.23;1666828;84;21331;-62
2021/08/19 02:39:40;;;;;;;13.18;7.50;;;;;;;19.80;91.77;100402.80;1687814;83;21075;-62
2021/08/19 02:42:08;;;;;;;12.80;7.40;;;;;;;19.82;91.83;100404.05;1692638;83;21099;-63
2021/08/19 02:44:35;;;;;;;14.33;7.78;;;;;;;19.83;91.64;100416.16;1658499;84;21548;-63
2021/08/19 02:47:03;;;;;;;10.48;7.30;;;;;;;19.82;91.54;100391.81;1677788;84;21065;-63
2021/08/19 02:49:31;;;;;;;12.45;7.37;;;;;;;19.79;91.37;100404.30;1684304;83;21608;-63
2021/08/19 02:51:59;;;;;;;10.23;7.28;;;;;;;19.75;91.54;100405.03;1685734;83;21111;-63
2021/08/19 02:54:26;;;;;;;14.00;8.05;;;;;;;19.73;91.65;100417.89;1691694;83;21110;-63
2021/08/19 02:56:53;;;;;;;13.80;7.03;;;;;;;19.71;91.60;100436.18;1683467;84;22323;-63
2021/08/19 02:59:20;;;;;;;11.25;7.33;;;;;;;19.71;91.75;100428.02;1687330;84;21088;-62
2021/08/19 03:01:48;;;;;;;11.80;6.67;;;;;;;19.74;91.80;100444.09;1675640;84;21086;-63
2021/08/19 03:04:15;;;;;;;12.75;6.30;;;;;;;19.78;91.84;100444.70;1670984;83;21213;-63
2021/08/19 03:06:42;;;;;;;15.75;6.90;;;;;;;19.79;91.80;100429.63;1691996;83;21053;-63
2021/08/19 03:09:08;;;;;;;17.67;7.03;;;;;;;19.79;91.81;100430.99;1691328;83;21031;-63
2021/08/19 03:11:37;;;;;;;13.28;7.28;;;;;;;19.78;91.92;100425.66;1657844;83;21125;-62
2021/08/19 03:14:04;;;;;;;9.53;5.97;;;;;;;19.78;92.05;100427.02;1667555;84;21147;-64
2021/08/19 03:16:31;;;;;;;9.40;6.17;;;;;;;19.75;91.74;100439.88;1659271;84;21318;-62
2021/08/19 03:19:01;;;;;;;11.73;6.40;;;;;;;19.72;91.73;100441.48;1692912;83;21046;-62
2021/08/19 03:21:28;;;;;;;12.10;6.83;;;;;;;19.73;91.75;100447.29;1682953;84;21083;-62
2021/08/19 03:23:55;;;;;;;11.53;6.33;;;;;;;19.72;91.85;100440.13;1679804;84;21069;-63
2021/08/19 03:26:22;;;;;;;9.28;6.22;;;;;;;19.70;92.13;100448.90;1659383;84;21179;-60
2021/08/19 03:28:49;;;;;;;8.23;6.53;;;;;;;19.68;92.32;100458.19;1655561;85;21522;-61
2021/08/19 03:31:17;;;;;;;12.55;6.45;;;;;;;19.65;92.61;100464.72;1615577;87;21091;-62
2021/08/19 03:33:46;;;;;;;11.05;6.00;;;;;;;19.64;92.73;100492.90;1623052;86;21150;-61
2021/08/19 03:36:14;;;;;;;14.00;6.15;;;;;;;19.63;93.14;100499.32;1607406;87;21077;-62
2021/08/19 03:38:43;;;;;;;12.78;6.72;;;;;;;19.64;94.24;100502.41;1676948;83;22532;-62
2021/08/19 03:41:12;;;;;;;12.35;7.15;;;;;;;19.63;94.51;100499.80;1685038;83;21589;-61
2021/08/19 03:43:39;;;;;;;10.45;7.45;;;;;;;19.59;95.42;100470.13;1651921;86;21738;-62
2021/08/19 03:46:06;;;;;;;12.78;7.10;;;;;;;19.53;96.66;100457.50;1652624;86;21842;-61
2021/08/19 03:48:33;;;;;;;12.05;7.05;;;;;;;19.42;98.23;100442.02;1650865;85;21143;-62
2021/08/19 03:51:00;;;;;;;10.13;6.67;;;;;;;19.29;99.71;100440.75;1677232;84;21197;-62
2021/08/19 03:53:28;;;;;;;12.15;6.47;;;;;;;19.17;100.00;100454.30;1686139;83;21700;-62
2021/08/19 03:55:55;;;;;;;14.63;7.45;;;;;;;19.08;100.00;100460.42;1691083;83;21100;-62
2021/08/19 03:58:22;;;;;;;9.98;6.90;;;;;;;18.98;100.00;100464.32;1697944;83;21144;-61
2021/08/19 04:00:51;;;;;;;11.90;7.00;;;;;;;18.92;100.00;100472.05;1686119;84;21703;-62
2021/08/19 04:03:18;;;;;;;11.97;6.97;;;;;;;18.86;100.00;100468.80;1689992;83;21023;-62
2021/08/19 04:05:45;;;;;;;11.15;7.12;;;;;;;18.81;100.00;100465.56;1670032;84;21107;-62
2021/08/19 04:08:12;;;;;;;9.55;6.80;;;;;;;18.76;100.00;100447.39;1687363;84;21553;-62
2021/08/19 04:10:40;;;;;;;9.95;6.62;;;;;;;18.73;100.00;100451.70;1688306;83;21135;-62
2021/08/19 04:13:08;;;;;;;10.50;7.03;;;;;;;18.69;100.00;100448.33;1685198;84;22098;-61
2021/08/19 04:15:37;;;;;;;10.03;6.70;;;;;;;18.66;100.00;100444.97;1672376;84;21204;-62
2021/08/19 04:18:07;;;;;;;12.05;7.08;;;;;;;18.64;100.00;100457.80;1690057;84;21549;-64
2021/08/19 04:20:35;;;;;;;10.75;7.30;;;;;;;18.61;100.00;100456.19;1666715;84;21509;-62
2021/08/19 04:23:03;;;;;;;10.28;7.22;;;;;;;18.59;100.00;100459.00;1669594;84;21136;-63
2021/08/19 04:25:30;;;;;;;11.80;7.20;;;;;;;18.58;100.00;100445.05;1687667;83;21540;-62
2021/08/19 04:27:57;;;;;;;11.12;6.55;;;;;;;18.54;100.00;100428.62;1696543;84;21084;-62
2021/08/19 04:30:24;;;;;;;10.55;6.58;;;;;;;18.51;100.00;100423.90;1695070;84;21131;-63
2021/08/19 04:32:51;;;;;;;6.95;5.85;;;;;;;18.46;100.00;100425.11;1678058;83;21120;-63
2021/08/19 04:35:18;;;;;;;8.33;5.75;;;;;;;18.41;100.00;100415.09;1684277;84;21564;-63
2021/08/19 04:37:45;;;;;;;12.35;5.65;;;;;;;18.37;100.00;100416.30;1678887;83;21088;-63
2021/08/19 04:40:13;;;;;;;10.50;5.80;;;;;;;18.34;100.00;100423.28;1659322;84;21089;-63
2021/08/19 04:42:40;;;;;;;9.70;5.65;;;;;;;18.32;100.00;100415.27;1696147;83;21108;-63
2021/08/19 04:45:09;;;;;;;6.33;5.28;;;;;;;18.31;100.00;100409.47;1692012;84;21070;-63
2021/08/19 04:47:38;;;;;;;13.35;5.45;;;;;;;18.30;100.00;100418.59;1693628;84;20997;-63
2021/08/19 04:50:06;;;;;;;11.15;5.30;;;;;;;18.28;100.00;100415.12;1690974;84;21025;-63
2021/08/19 04:52:33;;;;;;;8.30;5.87;;;;;;;18.27;100.00;100412.03;1687786;84;21173;-64
2021/08/19 04:55:02;;;;;;;11.22;5.67;;;;;;;18.26;100.00;100408.95;1683548;84;21092;-65
2021/08/19 04:57:30;;;;;;;12.82;5.53;;;;;;;18.24;100.00;100409.55;1686519;83;21270;-64
2021/08/19 04:59:57;;;;;;;9.78;5.97;;;;;;;18.23;100.00;100406.94;1698045;83;21127;-63
2021/08/19 05:02:24;;;;;;;11.03;5.80;;;;;;;18.21;100.00;100407.03;1694100;83;21060;-64
2021/08/19 05:04:51;;;;;;;9.43;5.45;;;;;;;18.20;100.00;100405.80;1680543;83;21080;-64
2021/08/19 05:07:18;;;;;;;9.90;5.50;;;;;;;18.20;100.00;100402.59;1681833;84;21060;-65
2021/08/19 05:09:45;;;;;;;12.28;5.40;;;;;;;18.21;100.00;100394.83;1688139;83;21513;-64
2021/08/19 05:12:14;;;;;;;9.53;5.55;;;;;;;18.21;100.00;100396.19;1688437;83;21964;-63
2021/08/19 05:14:41;;;;;;;7.83;5.42;;;;;;;18.22;100.00;100399.27;1692919;83;21038;-62
2021/08/19 05:17:07;;;;;;;13.98;5.40;;;;;;;18.22;100.00;100396.56;1663743;84;21174;-64
2021/08/19 05:19:34;;;;;;;13.80;5.65;;;;;;;18.23;100.00;100400.16;1669949;84;21628;-63
2021/08/19 05:22:03;;;;;;;11.38;5.17;;;;;;;18.23;100.00;100399.65;1691909;83;21077;-65
2021/08/19 05:24:30;;;;;;;10.18;4.90;;;;;;;18.25;100.00;100392.77;1684980;83;21132;-63
2021/08/19 05:26:57;;;;;;;10.50;5.62;;;;;;;18.25;100.00;100407.22;1686742;84;21083;-62
2021/08/19 05:29:24;;;;;;;8.70;4.65;;;;;;;18.26;100.00;100411.66;1675737;83;21048;-65
2021/08/19 05:31:51;;;;;;;10.18;6.05;;;;;;;18.29;100.00;100419.58;1667023;84;21095;-65
2021/08/19 05:34:20;;;;;;;6.40;5.35;;;;;;;18.32;100.00;100421.17;1631102;83;21109;-65
2021/08/19 05:36:47;;;;;;;7.70;5.30;;;;;;;18.35;100.00;100410.13;1663485;84;21637;-64
2021/08/19 05:39:14;;;;;;;6.75;5.25;;;;;;;18.40;100.00;100432.83;1682850;83;21463;-65
2021/08/19 05:41:41;;;;;;;7.12;5.22;;;;;;;18.42;100.00;100428.16;1685623;83;21109;-65
2021/08/19 05:44:09;;;;;;;11.15;5.45;;;;;;;18.43;100.00;100420.39;1683182;83;21127;-65
2021/08/19 05:46:39;;;;;;;7.00;5.67;;;;;;;18.47;100.00;100424.64;1663739;84;21157;-64
2021/08/19 05:49:08;;;;;;;10.05;6.15;;;;;;;18.50;100.00;100420.34;1679300;83;21599;-65
2021/08/19 05:51:36;;;;;;;8.83;5.30;;;;;;;18.52;100.00;100425.63;1653378;85;21047;-64
2021/08/19 05:54:04;;;;;;;6.75;5.75;;;;;;;18.54;100.00;100431.34;1641586;85;21109;-64
2021/08/19 05:56:31;;;;;;;7.58;5.90;;;;;;;18.56;100.00;100439.34;1661365;85;21072;-66
2021/08/19 05:59:00;;;;;;;7.67;4.78;;;;;;;18.59;100.00;100440.51;1657670;84;21048;-65
2021/08/19 06:01:27;;;;;;;8.20;5.03;;;;;;;18.64;100.00;100443.74;1687778;83;21907;-65
2021/08/19 06:03:54;;;;;;;7.72;5.55;;;;;;;18.68;100.00;100456.58;1692131;83;21231;-65
2021/08/19 06:06:23;;;;;;;8.15;5.50;;;;;;;18.71;100.00;100450.95;1690574;83;21088;-64
2021/08/19 06:08:51;;;;;;;7.28;5.37;;;;;;;18.76;100.00;100462.33;1627848;85;21736;-64
2021/08/19 06:11:20;;;;;;;14.63;5.80;;;;;;;18.81;100.00;100466.92;1650534;85;21081;-65
2021/08/19 06:13:47;;;;;;;5.85;4.17;;;;;;;18.84;100.00;100466.69;1672315;83;21562;-64
2021/08/19 06:16:14;;;;;;;6.75;4.15;;;;;;;18.88;100.00;100462.75;1677981;83;21116;-64
2021/08/19 06:18:41;;;;;;;9.95;4.20;;;;;;;18.93;100.00;100460.20;1663275;84;21055;-64
2021/08/19 06:21:08;;;;;;;5.83;4.00;;;;;;;18.98;100.00;100456.65;1703213;83;21044;-63
2021/08/19 06:23:35;;;;;;;7.22;3.83;;;;;;;19.05;100.00;100468.80;1692351;83;21161;-63
2021/08/19 06:26:03;;;;;;;6.30;3.52;;;;;;;19.16;100.00;100453.93;1651424;85;21942;-63
2021/08/19 06:28:33;;;;;;;4.37;3.00;;;;;;;19.30;98.88;100443.84;1653402;84;21069;-64
2021/08/19 06:31:01;;;;;;;6.00;3.00;;;;;;;19.42;97.28;100456.97;1635679;85;38497;-63
2021/08/19 06:33:29;;;;;;;4.28;2.90;;;;;;;19.54;95.96;100456.03;1623829;86;21155;-63
2021/08/19 06:35:56;;;;;;;5.17;3.27;;;;;;;19.74;95.06;100454.97;1643532;85;21076;-63
2021/08/19 06:38:23;;;;;;;3.52;2.98;;;;;;;19.88;92.86;100447.92;1637935;85;21150;-62
2021/08/19 06:40:50;;;;;;;4.87;2.92;;;;;;;19.96;92.54;100460.95;1629891;85;21140;-63
2021/08/19 06:45:49;;;;;;;11.30;3.80;;;;;;;19.95;91.82;100445.62;1683359;83;21628;-62
2021/08/19 06:48:16;;;;;;;4.85;3.22;;;;;;;19.98;92.89;100441.80;1684151;83;21040;-62
2021/08/19 06:50:43;;;;;;;8.10;3.05;;;;;;;20.02;92.87;100453.69;1678674;83;21813;-62
2021/08/19 06:53:10;;;;;;;6.37;3.72;;;;;;;20.01;91.45;100449.23;1690702;83;21115;-63
2021/08/19 06:55:39;;;;;;;4.75;3.20;;;;;;;19.99;91.91;100455.78;1684027;82;21536;-63
2021/08/19 06:58:07;;;;;;;4.78;3.70;;;;;;;19.97;91.67;100458.61;1691414;83;21100;-63
2021/08/19 07:00:34;;;;;;;4.53;3.50;;;;;;;19.98;92.09;100443.16;1696116;83;21056;-63
2021/08/19 07:03:03;;;;;;;6.00;3.70;;;;;;;19.98;91.34;100439.94;1687424;83;21054;-61
2021/08/19 07:05:30;;;;;;;6.28;3.27;;;;;;;19.99;91.04;100444.38;1651664;85;21128;-62
2021/08/19 07:08:00;;;;;;;4.75;3.50;;;;;;;20.01;91.15;100446.52;1625864;86;21138;-62
2021/08/19 07:10:32;;;;;;;4.58;3.70;;;;;;;20.03;90.52;100445.02;1655347;84;21234;-63
2021/08/19 07:13:00;;;;;;;8.43;4.47;;;;;;;20.05;90.70;100463.45;1687013;83;21728;-62
2021/08/19 07:15:28;;;;;;;13.18;3.85;;;;;;;20.07;90.52;100457.89;1678650;83;21268;-62
2021/08/19 07:17:58;;;;;;;4.85;3.70;;;;;;;20.17;91.02;100454.79;1698072;83;21108;-62
2021/08/19 07:20:27;;;;;;;4.47;3.83;;;;;;;20.32;89.74;100457.64;1681044;83;21056;-62
2021/08/19 07:22:56;;;;;;;7.37;4.03;;;;;;;20.36;88.86;100469.64;1687223;83;21103;-62
2021/08/19 07:25:23;;;;;;;5.03;4.03;;;;;;;20.30;89.07;100459.62;1695067;83;21184;-62
2021/08/19 07:27:50;;;;;;;7.03;4.35;;;;;;;20.25;89.39;100455.53;1662549;83;21151;-60
2021/08/19 07:30:17;;;;;;;5.78;4.33;;;;;;;20.21;89.86;100457.63;1679669;83;21206;-60
2021/08/19 07:32:45;;;;;;;9.43;4.80;;;;;;;20.30;90.44;100450.58;1660045;83;21135;-61
2021/08/19 07:35:13;;;;;;;4.72;3.72;;;;;;;20.48;89.78;100455.04;1693285;83;21407;-61
2021/08/19 07:37:49;;;;;;;5.25;4.12;;;;;;;20.69;88.19;100456.98;1676676;83;21628;-61
2021/08/19 07:40:18;;;;;;;4.40;3.95;;;;;;;20.86;86.07;100460.55;1669734;83;21414;-61
2021/08/19 07:42:45;;;;;;;6.55;4.22;;;;;;;20.98;84.74;100464.62;1689502;83;21701;-61
2021/08/19 07:45:13;;;;;;;8.38;4.40;;;;;;;21.07;84.18;100490.23;1676997;83;21059;-61
2021/08/19 07:47:40;;;;;;;6.85;4.53;;;;;;;21.11;83.99;100468.53;1686642;83;21062;-61
2021/08/19 07:50:08;;;;;;;7.60;4.50;;;;;;;21.11;82.38;100476.23;1685983;83;22205;-60
2021/08/19 07:52:36;;;;;;;7.25;4.28;;;;;;;21.10;82.63;100473.11;1683545;83;21193;-60
2021/08/19 07:55:04;;;;;;;10.30;4.72;;;;;;;21.01;82.29;100471.17;1683206;83;21317;-61
2021/08/19 07:57:44;;;;;;;14.25;4.65;;;;;;;20.95;83.17;100482.59;1679504;83;21087;-61
2021/08/19 08:00:13;;;;;;;6.15;4.22;;;;;;;20.92;82.71;100492.39;1678113;84;21127;-61
2021/08/19 08:02:40;;;;;;;6.55;5.00;;;;;;;20.93;81.85;100481.86;1689388;83;21530;-61
2021/08/19 08:05:08;;;;;;;9.53;4.80;;;;;;;21.01;82.02;100452.09;1653039;85;21076;-62
2021/08/19 08:07:35;;;;;;;9.38;5.25;;;;;;;21.14;82.17;100470.52;1622877;85;21072;-61
2021/08/19 08:10:04;;;;;;;5.78;4.62;;;;;;;21.25;82.56;100456.46;1635657;85;21002;-62
2021/08/19 08:12:31;;;;;;;7.10;4.25;;;;;;;21.33;82.00;100466.20;1638260;85;21177;-61
2021/08/19 08:14:59;;;;;;;11.70;5.78;;;;;;;21.36;80.53;100478.23;1639460;85;21095;-61
2021/08/19 08:17:27;;;;;;;11.53;5.12;;;;;;;21.41;81.49;100451.92;1630335;86;22326;-61
2021/08/19 08:19:56;;;;;;;4.92;4.30;;;;;;;21.49;80.90;100481.26;1636445;85;21223;-62
2021/08/19 08:22:23;;;;;;;5.25;4.08;;;;;;;21.50;80.48;100489.81;1632120;85;21148;-62
2021/08/19 08:24:51;;;;;;;5.37;4.72;;;;;;;21.50;80.73;100472.08;1650238;84;21029;-61
2021/08/19 08:27:18;;;;;;;6.05;4.50;;;;;;;21.52;80.02;100475.05;1642441;85;21143;-61
2021/08/19 08:29:46;;;;;;;4.80;4.30;;;;;;;21.52;79.34;100464.14;1629121;85;21000;-61
2021/08/19 08:32:13;;;;;;;5.55;4.37;;;;;;;21.50;79.64;100470.72;1610365;86;21140;-61
2021/08/19 08:34:40;;;;;;;5.05;4.17;;;;;;;21.52;79.37;100468.72;1624206;85;21778;-61
2021/08/19 08:37:09;;;;;;;5.80;4.17;;;;;;;21.52;78.80;100474.17;1640089;86;21136;-61
2021/08/19 08:39:37;;;;;;;6.95;4.05;;;;;;;21.46;78.45;100473.71;1636621;86;21595;-61
2021/08/19 08:42:10;;;;;;;12.60;4.53;;;;;;;21.42;78.25;100465.44;1642383;85;21161;-60
2021/08/19 08:44:37;;;;;;;10.13;4.05;;;;;;;21.45;78.91;100466.53;1653711;84;21096;-63
2021/08/19 08:47:04;;;;;;;8.93;4.78;;;;;;;21.61;79.01;100443.39;1609270;86;21646;-59
2021/08/19 08:49:31;;;;;;;9.38;4.05;;;;;;;21.82;77.86;100457.05;1647150;85;22174;-61
2021/08/19 08:51:59;;;;;;;7.22;4.22;;;;;;;22.06;77.34;100442.75;1614162;86;21136;-61
2021/08/19 08:54:29;;;;;;;11.00;5.10;;;;;;;22.15;75.20;100466.48;1630787;86;21111;-59
2021/08/19 08:56:57;;;;;;;6.53;3.87;;;;;;;22.22;75.61;100458.13;1615463;87;21648;-62
2021/08/19 08:59:24;;;;;;;7.42;4.00;;;;;;;22.32;73.61;100466.34;1616095;86;21376;-59
2021/08/19 09:01:56;;;;;;;5.65;4.00;;;;;;;22.28;73.03;100468.50;1612254;86;21172;-61
2021/08/19 09:04:23;;;;;;;5.03;4.28;;;;;;;22.21;72.46;100463.20;1650197;84;21163;-63
2021/08/19 09:06:50;;;;;;;7.20;4.30;;;;;;;22.18;72.35;100467.57;1642806;84;21513;-62
2021/08/19 09:09:25;;;;;;;5.30;4.50;;;;;;;22.10;72.73;100481.05;1626791;85;21125;-62
2021/08/19 09:12:06;;;;;;;6.90;4.47;;;;;;;22.00;72.89;100480.51;1635264;84;20941;-62
2021/08/19 09:14:36;;;;;;;11.70;4.15;;;;;;;21.97;72.86;100483.48;1633013;85;21087;-62
2021/08/19 09:17:05;;;;;;;4.58;4.17;;;;;;;22.01;72.95;100489.06;1639194;85;21096;-62
2021/08/19 09:19:34;;;;;;;7.45;4.83;;;;;;;22.06;71.91;100489.16;1653646;84;21788;-62
2021/08/19 09:22:04;;;;;;;5.72;4.28;;;;;;;22.00;71.74;100489.19;1670420;83;21106;-62
2021/08/19 09:24:35;;;;;;;8.53;4.60;;;;;;;21.89;71.38;100500.55;1671175;83;21437;-61
2021/08/19 09:27:17;;;;;;;5.28;4.67;;;;;;;21.93;72.01;100491.58;1678506;83;21053;-61
2021/08/19 09:29:47;;;;;;;5.25;4.70;;;;;;;22.01;71.29;100506.80;1674967;82;20930;-61
2021/08/19 09:32:18;;;;;;;4.62;4.17;;;;;;;21.98;71.07;100506.20;1656227;84;21132;-60
2021/08/19 09:34:48;;;;;;;5.30;4.80;;;;;;;21.92;71.20;100498.04;1678074;83;21079;-61
2021/08/19 09:37:19;;;;;;;6.62;4.53;;;;;;;21.92;71.02;100500.77;1686639;83;20970;-61
2021/08/19 09:39:58;;;;;;;8.30;4.92;;;;;;;21.92;71.57;100498.04;1685910;83;21104;-61
2021/08/19 09:42:39;;;;;;;9.58;4.90;;;;;;;22.04;71.46;100501.55;1688305;82;21108;-61
2021/08/19 09:45:22;;;;;;;5.12;4.62;;;;;;;22.11;71.46;100523.73;1683810;83;21178;-61
2021/08/19 09:47:51;;;;;;;5.92;4.70;;;;;;;22.07;70.72;100514.08;1689892;83;20985;-60
2021/08/19 09:50:23;;;;;;;9.75;4.92;;;;;;;22.04;71.12;100505.16;1671122;83;20993;-60
2021/08/19 09:52:51;;;;;;;8.53;4.95;;;;;;;22.03;71.15;100519.81;1698169;83;21167;-61
2021/08/19 09:55:29;;;;;;;9.03;4.80;;;;;;;22.07;71.29;100516.30;1684319;83;21058;-60
2021/08/19 09:57:58;;;;;;;8.90;4.60;;;;;;;22.16;71.33;100513.26;1681552;83;21124;-60
2021/08/19 10:00:30;;;;;;;8.53;4.87;;;;;;;22.26;70.98;100519.66;1638703;85;21514;-60
2021/08/19 10:02:57;;;;;;;8.88;4.75;;;;;;;22.36;70.30;100520.19;1614574;86;21195;-61
2021/08/19 10:05:24;;;;;;;7.30;4.95;;;;;;;22.40;70.31;100539.39;1630996;84;21130;-61
2021/08/19 10:07:51;;;;;;;8.28;4.58;;;;;;;22.40;69.70;100533.93;1684988;83;21052;-60
2021/08/19 10:10:18;;;;;;;4.70;3.90;;;;;;;22.35;69.16;100518.46;1664996;84;21682;-60
2021/08/19 10:12:49;;;;;;;10.85;4.05;;;;;;;22.35;68.41;100523.92;1705913;83;21064;-60
2021/08/19 10:15:16;;;;;;;10.43;4.00;;;;;;;22.30;67.73;100512.91;1695390;82;21138;-61
2021/08/19 10:17:48;;;;;;;8.13;4.00;;;;;;;22.28;68.49;100525.84;1690992;83;21087;-61
2021/08/19 10:20:19;;;;;;;5.85;4.17;;;;;;;22.26;67.72;100516.05;1690604;83;21054;-61
2021/08/19 10:22:47;;;;;;;9.90;4.47;;;;;;;22.25;67.55;100519.30;1685563;82;21193;-60
2021/08/19 10:25:17;;;;;;;7.35;4.72;;;;;;;22.21;67.97;100533.34;1676690;83;21057;-61
2021/08/19 10:27:46;;;;;;;8.10;5.15;;;;;;;22.14;68.43;100530.28;1687172;82;21100;-59
2021/08/19 10:30:22;;;;;;;7.03;4.45;;;;;;;22.13;69.06;100532.64;1694247;83;21044;-60
2021/08/19 10:32:52;;;;;;;6.90;4.22;;;;;;;22.16;69.74;100533.25;1673274;83;21832;-61
2021/08/19 10:35:28;;;;;;;7.28;4.80;;;;;;;22.17;68.11;100543.66;1701626;83;21142;-61
2021/08/19 10:38:00;;;;;;;7.22;4.50;;;;;;;22.14;67.58;100534.38;1690737;82;22244;-61
2021/08/19 10:40:34;;;;;;;7.05;4.30;;;;;;;22.12;67.73;100537.25;1686245;81;21232;-61
2021/08/19 10:45:40;;;;;;;8.45;4.05;;;;;;;22.16;67.44;100549.63;1664995;84;21114;-59
2021/08/19 10:48:14;;;;;;;4.40;4.00;;;;;;;22.15;67.56;100535.61;1694472;83;21193;-59
2021/08/19 10:50:43;;;;;;;8.00;4.42;;;;;;;22.14;67.03;100528.91;1693366;83;21079;-61
2021/08/19 10:53:18;;;;;;;8.60;4.10;;;;;;;22.17;67.60;100517.72;1638281;85;21574;-61
2021/08/19 10:55:54;;;;;;;8.28;4.72;;;;;;;22.23;67.42;100528.13;1638157;85;21063;-61
2021/08/19 10:58:30;;;;;;;9.23;4.80;;;;;;;22.32;68.23;100525.92;1640537;85;21064;-60
2021/08/19 11:01:17;;;;;;;7.22;4.42;;;;;;;22.42;68.58;100550.55;1633242;85;21629;-60
2021/08/19 11:03:54;;;;;;;14.45;4.95;;;;;;;22.39;68.04;100532.20;1640032;85;21096;-60
2021/08/19 11:06:26;;;;;;;10.10;4.50;;;;;;;22.33;68.07;100529.02;1639031;85;20986;-61
2021/08/19 11:08:58;;;;;;;6.40;3.77;;;;;;;22.35;67.60;100540.31;1650228;85;21116;-61
2021/08/19 11:11:35;;;;;;;5.55;3.60;;;;;;;22.33;67.73;100529.02;1633090;85;21001;-61
2021/08/19 11:14:13;;;;;;;5.72;4.42;;;;;;;22.27;67.13;100521.38;1622918;86;21094;-59
2021/08/19 11:16:42;;;;;;;6.58;4.35;;;;;;;22.18;68.67;100538.56;1641845;85;21071;-60
2021/08/19 11:19:24;;;;;;;7.08;4.25;;;;;;;22.15;69.07;100524.70;1639855;85;21264;-62
2021/08/19 11:21:55;;;;;;;6.90;4.00;;;;;;;22.18;68.90;100522.17;1631226;85;21096;-61
2021/08/19 11:24:26;;;;;;;3.75;3.35;;;;;;;22.22;69.66;100529.61;1639453;85;21135;-61
2021/08/19 11:26:57;;;;;;;6.15;3.22;;;;;;;22.22;67.16;100525.52;1600639;86;21114;-60
2021/08/19 11:29:35;;;;;;;5.53;3.60;;;;;;;22.16;68.04;100518.72;1695196;83;20976;-60
2021/08/19 11:32:09;;;;;;;9.63;4.47;;;;;;;22.23;68.10;100509.49;1689591;83;21771;-59
2021/08/19 11:34:37;;;;;;;10.45;3.95;;;;;;;22.31;68.37;100522.83;1687643;83;21489;-59